sensor_id;sensor_type;location;lat;lon;timestamp;pressure;altitude;pressure_sealevel;temperature;humidity
35918;BME280;22011;59.912;30.300;2024-01-27T00:01:36;101570.53;;;-0.71;71.92
35918;BME280;22011;59.912;30.300;2024-01-27T00:04:04;101564.31;;;-0.69;71.98
35918;BME280;22011;59.912;30.300;2024-01-27T00:06:32;101568.78;;;-0.71;71.85
35918;BME280;22011;59.912;30.300;2024-01-27T00:09:01;101570.47;;;-0.70;72.03
35918;BME280;22011;59.912;30.300;2024-01-27T00:11:28;101576.69;;;-0.72;72.25
35918;BME280;22011;59.912;30.300;2024-01-27T00:13:56;101574.94;;;-0.72;72.41
35918;BME280;22011;59.912;30.300;2024-01-27T00:16:25;101577.41;;;-0.69;72.29
35918;BME280;22011;59.912;30.300;2024-01-27T00:18:52;101569.53;;;-0.69;72.26
35918;BME280;22011;59.912;30.300;2024-01-27T00:21:20;101573.16;;;-0.71;71.99
35918;BME280;22011;59.912;30.300;2024-01-27T00:23:48;101578.53;;;-0.74;71.71
35918;BME280;22011;59.912;30.300;2024-01-27T00:26:17;101583.13;;;-0.79;71.75
35918;BME280;22011;59.912;30.300;2024-01-27T00:28:44;101580.59;;;-0.81;71.78
35918;BME280;22011;59.912;30.300;2024-01-27T00:31:12;101580.59;;;-0.81;71.90
35918;BME280;22011;59.912;30.300;2024-01-27T00:33:39;101584.84;;;-0.78;72.20
35918;BME280;22011;59.912;30.300;2024-01-27T00:36:07;101580.44;;;-0.78;72.06
35918;BME280;22011;59.912;30.300;2024-01-27T00:38:34;101579.47;;;-0.75;71.93
35918;BME280;22011;59.912;30.300;2024-01-27T00:41:02;101570.69;;;-0.74;71.64
35918;BME280;22011;59.912;30.300;2024-01-27T00:43:31;101573.22;;;-0.73;71.65
35918;BME280;22011;59.912;30.300;2024-01-27T00:45:59;101579.16;;;-0.69;72.31
35918;BME280;22011;59.912;30.300;2024-01-27T00:48:26;101580.31;;;-0.75;71.80
35918;BME280;22011;59.912;30.300;2024-01-27T00:50:54;101580.22;;;-0.73;71.91
35918;BME280;22011;59.912;30.300;2024-01-27T00:53:22;101574.78;;;-0.69;72.14
35918;BME280;22011;59.912;30.300;2024-01-27T00:55:49;101578.25;;;-0.68;72.20
35918;BME280;22011;59.912;30.300;2024-01-27T00:58:17;101584.25;;;-0.66;72.49
35918;BME280;22011;59.912;30.300;2024-01-27T01:00:46;101591.81;;;-0.60;72.38
35918;BME280;22011;59.912;30.300;2024-01-27T01:03:14;101591.81;;;-0.60;71.73
35918;BME280;22011;59.912;30.300;2024-01-27T01:05:41;101595.06;;;-0.55;72.21
35918;BME280;22011;59.912;30.300;2024-01-27T01:08:09;101599.28;;;-0.52;72.46
35918;BME280;22011;59.912;30.300;2024-01-27T01:10:37;101588.06;;;-0.54;71.81
35918;BME280;22011;59.912;30.300;2024-01-27T01:13:04;101587.22;;;-0.55;71.54
35918;BME280;22011;59.912;30.300;2024-01-27T01:15:32;101587.22;;;-0.55;71.30
35918;BME280;22011;59.912;30.300;2024-01-27T01:18:01;101590.75;;;-0.56;71.28
35918;BME280;22011;59.912;30.300;2024-01-27T01:20:30;101604.59;;;-0.54;71.61
35918;BME280;22011;59.912;30.300;2024-01-27T01:22:58;101609.91;;;-0.55;71.32
35918;BME280;22011;59.912;30.300;2024-01-27T01:25:26;101610.75;;;-0.55;71.25
35918;BME280;22011;59.912;30.300;2024-01-27T01:27:53;101598.75;;;-0.59;71.22
35918;BME280;22011;59.912;30.300;2024-01-27T01:30:21;101594.56;;;-0.63;71.18
35918;BME280;22011;59.912;30.300;2024-01-27T01:32:49;101605.19;;;-0.66;71.28
35918;BME280;22011;59.912;30.300;2024-01-27T01:35:19;101601.59;;;-0.63;71.65
35918;BME280;22011;59.912;30.300;2024-01-27T01:37:46;101606.13;;;-0.67;71.34
35918;BME280;22011;59.912;30.300;2024-01-27T01:40:15;101612.28;;;-0.68;71.46
35918;BME280;22011;59.912;30.300;2024-01-27T01:42:42;101614.88;;;-0.68;71.62
35918;BME280;22011;59.912;30.300;2024-01-27T01:45:11;101622.72;;;-0.68;71.49
35918;BME280;22011;59.912;30.300;2024-01-27T01:47:40;101612.28;;;-0.68;72.06
35918;BME280;22011;59.912;30.300;2024-01-27T01:50:08;101618.50;;;-0.71;71.80
35918;BME280;22011;59.912;30.300;2024-01-27T01:52:38;101618.34;;;-0.68;71.75
35918;BME280;22011;59.912;30.300;2024-01-27T01:55:06;101613.19;;;-0.69;71.91
35918;BME280;22011;59.912;30.300;2024-01-27T01:57:34;101622.88;;;-0.71;72.28
35918;BME280;22011;59.912;30.300;2024-01-27T02:00:03;101621.19;;;-0.72;72.33
35918;BME280;22011;59.912;30.300;2024-01-27T02:02:38;101616.88;;;-0.73;72.40
35918;BME280;22011;59.912;30.300;2024-01-27T02:05:06;101622.38;;;-0.79;72.42
35918;BME280;22011;59.912;30.300;2024-01-27T02:07:35;101627.53;;;-0.59;73.70
35918;BME280;22011;59.912;30.300;2024-01-27T02:10:05;101628.47;;;-0.79;72.68
35918;BME280;22011;59.912;30.300;2024-01-27T02:12:33;101624.91;;;-0.59;73.69
35918;BME280;22011;59.912;30.300;2024-01-27T02:15:00;101628.31;;;-0.76;72.60
35918;BME280;22011;59.912;30.300;2024-01-27T02:17:28;101629.31;;;-0.78;72.78
35918;BME280;22011;59.912;30.300;2024-01-27T02:19:56;101623.16;;;-0.77;72.81
35918;BME280;22011;59.912;30.300;2024-01-27T02:22:23;101622.38;;;-0.79;72.91
35918;BME280;22011;59.912;30.300;2024-01-27T02:24:52;101629.25;;;-0.77;72.61
35918;BME280;22011;59.912;30.300;2024-01-27T02:27:20;101625.00;;;-0.79;72.88
35918;BME280;22011;59.912;30.300;2024-01-27T02:29:47;101630.25;;;-0.79;73.15
35918;BME280;22011;59.912;30.300;2024-01-27T02:32:15;101623.44;;;-0.83;73.17
35918;BME280;22011;59.912;30.300;2024-01-27T02:34:43;101627.00;;;-0.84;73.22
35918;BME280;22011;59.912;30.300;2024-01-27T02:37:10;101625.28;;;-0.85;73.15
35918;BME280;22011;59.912;30.300;2024-01-27T02:39:38;101622.59;;;-0.84;73.13
35918;BME280;22011;59.912;30.300;2024-01-27T02:42:07;101620.97;;;-0.86;73.11
35918;BME280;22011;59.912;30.300;2024-01-27T02:44:35;101627.56;;;-0.96;72.90
35918;BME280;22011;59.912;30.300;2024-01-27T02:47:03;101632.91;;;-1.00;73.32
35918;BME280;22011;59.912;30.300;2024-01-27T02:49:30;101626.00;;;-1.01;73.70
35918;BME280;22011;59.912;30.300;2024-01-27T02:51:58;101632.91;;;-1.00;73.83
35918;BME280;22011;59.912;30.300;2024-01-27T02:54:25;101634.69;;;-1.00;73.90
35918;BME280;22011;59.912;30.300;2024-01-27T02:56:53;101636.31;;;-0.98;74.17
35918;BME280;22011;59.912;30.300;2024-01-27T02:59:22;101630.16;;;-0.96;74.05
35918;BME280;22011;59.912;30.300;2024-01-27T03:01:50;101624.28;;;-1.02;73.89
35918;BME280;22011;59.912;30.300;2024-01-27T03:04:18;101621.69;;;-1.02;73.92
35918;BME280;22011;59.912;30.300;2024-01-27T03:06:45;101630.22;;;-0.98;73.51
35918;BME280;22011;59.912;30.300;2024-01-27T03:09:13;101634.75;;;-1.02;73.47
35918;BME280;22011;59.912;30.300;2024-01-27T03:11:40;101637.53;;;-1.05;73.92
35918;BME280;22011;59.912;30.300;2024-01-27T03:14:08;101638.47;;;-1.06;74.00
35918;BME280;22011;59.912;30.300;2024-01-27T03:16:38;101637.53;;;-1.05;74.30
35918;BME280;22011;59.912;30.300;2024-01-27T03:19:06;101628.00;;;-1.06;74.36
35918;BME280;22011;59.912;30.300;2024-01-27T03:21:33;101633.22;;;-1.06;74.20
35918;BME280;22011;59.912;30.300;2024-01-27T03:24:01;101638.47;;;-1.06;73.89
35918;BME280;22011;59.912;30.300;2024-01-27T03:26:29;101638.47;;;-1.06;73.83
35918;BME280;22011;59.912;30.300;2024-01-27T03:28:57;101632.31;;;-1.05;74.01
35918;BME280;22011;59.912;30.300;2024-01-27T03:31:30;101639.00;;;-0.99;74.19
35918;BME280;22011;59.912;30.300;2024-01-27T03:34:00;101633.22;;;-1.06;74.19
35918;BME280;22011;59.912;30.300;2024-01-27T03:36:28;101634.16;;;-1.07;74.26
35918;BME280;22011;59.912;30.300;2024-01-27T03:38:56;101633.31;;;-1.07;74.49
35918;BME280;22011;59.912;30.300;2024-01-27T03:41:24;101634.28;;;-1.10;74.75
35918;BME280;22011;59.912;30.300;2024-01-27T03:43:52;101633.38;;;-1.09;74.99
35918;BME280;22011;59.912;30.300;2024-01-27T03:46:19;101635.91;;;-1.07;75.04
35918;BME280;22011;59.912;30.300;2024-01-27T03:48:47;101637.69;;;-1.08;75.08
35918;BME280;22011;59.912;30.300;2024-01-27T03:51:16;101633.22;;;-1.06;74.86
35918;BME280;22011;59.912;30.300;2024-01-27T03:53:44;101645.53;;;-1.08;74.99
35918;BME280;22011;59.912;30.300;2024-01-27T03:56:12;101645.53;;;-1.08;75.03
35918;BME280;22011;59.912;30.300;2024-01-27T03:58:39;101648.22;;;-1.09;75.01
35918;BME280;22011;59.912;30.300;2024-01-27T04:01:07;101654.16;;;-1.06;75.16
35918;BME280;22011;59.912;30.300;2024-01-27T04:03:34;101646.13;;;-1.03;75.28
35918;BME280;22011;59.912;30.300;2024-01-27T04:06:02;101652.16;;;-1.01;75.15
35918;BME280;22011;59.912;30.300;2024-01-27T04:08:31;101650.19;;;-0.95;74.71
35918;BME280;22011;59.912;30.300;2024-01-27T04:10:59;101658.22;;;-1.00;74.39
35918;BME280;22011;59.912;30.300;2024-01-27T04:13:26;101654.84;;;-1.02;74.55
35918;BME280;22011;59.912;30.300;2024-01-27T04:15:54;101660.38;;;-1.08;74.42
35918;BME280;22011;59.912;30.300;2024-01-27T04:18:25;101664.69;;;-1.07;74.80
35918;BME280;22011;59.912;30.300;2024-01-27T04:20:53;101666.16;;;-1.02;74.87
35918;BME280;22011;59.912;30.300;2024-01-27T04:23:20;101669.69;;;-1.03;74.75
35918;BME280;22011;59.912;30.300;2024-01-27T04:25:49;101677.53;;;-1.03;74.62
35918;BME280;22011;59.912;30.300;2024-01-27T04:28:17;101675.22;;;-1.09;74.62
35918;BME280;22011;59.912;30.300;2024-01-27T04:30:45;101676.97;;;-1.09;74.72
35918;BME280;22011;59.912;30.300;2024-01-27T04:33:12;101674.50;;;-1.12;75.00
35918;BME280;22011;59.912;30.300;2024-01-27T04:35:40;101688.50;;;-1.13;75.19
35918;BME280;22011;59.912;30.300;2024-01-27T04:38:08;101682.41;;;-1.14;75.23
35918;BME280;22011;59.912;30.300;2024-01-27T04:40:36;101686.59;;;-1.10;74.95
35918;BME280;22011;59.912;30.300;2024-01-27T04:43:05;101682.16;;;-1.08;75.22
35918;BME280;22011;59.912;30.300;2024-01-27T04:45:33;101691.69;;;-1.07;75.23
35918;BME280;22011;59.912;30.300;2024-01-27T04:48:00;101689.91;;;-1.06;75.12
35918;BME280;22011;59.912;30.300;2024-01-27T04:50:28;101693.38;;;-1.06;75.01
35918;BME280;22011;59.912;30.300;2024-01-27T04:52:55;101698.56;;;-1.04;74.96
35918;BME280;22011;59.912;30.300;2024-01-27T04:55:23;101698.44;;;-1.03;74.86
35918;BME280;22011;59.912;30.300;2024-01-27T04:57:51;101709.81;;;-1.04;74.84
35918;BME280;22011;59.912;30.300;2024-01-27T05:00:21;101713.16;;;-1.00;75.15
35918;BME280;22011;59.912;30.300;2024-01-27T05:02:48;101718.31;;;-0.99;74.98
35918;BME280;22011;59.912;30.300;2024-01-27T05:05:16;101723.41;;;-0.95;75.24
35918;BME280;22011;59.912;30.300;2024-01-27T05:07:43;101721.72;;;-0.96;75.00
35918;BME280;22011;59.912;30.300;2024-01-27T05:10:11;101732.03;;;-0.93;74.86
35918;BME280;22011;59.912;30.300;2024-01-27T05:12:39;101728.50;;;-0.92;74.51
35918;BME280;22011;59.912;30.300;2024-01-27T05:15:07;101738.91;;;-0.91;74.64
35918;BME280;22011;59.912;30.300;2024-01-27T05:17:37;101733.69;;;-0.91;74.54
35918;BME280;22011;59.912;30.300;2024-01-27T05:20:06;101738.97;;;-0.92;74.19
35918;BME280;22011;59.912;30.300;2024-01-27T05:22:34;101733.81;;;-0.94;74.29
35918;BME280;22011;59.912;30.300;2024-01-27T05:25:02;101739.03;;;-0.94;74.22
35918;BME280;22011;59.912;30.300;2024-01-27T05:27:30;101737.28;;;-0.93;74.43
35918;BME280;22011;59.912;30.300;2024-01-27T05:29:58;101735.59;;;-0.94;74.33
35918;BME280;22011;59.912;30.300;2024-01-27T05:32:26;101734.81;;;-0.96;74.42
35918;BME280;22011;59.912;30.300;2024-01-27T05:34:55;101735.59;;;-0.94;74.46
35918;BME280;22011;59.912;30.300;2024-01-27T05:37:22;101746.25;;;-0.99;74.52
35918;BME280;22011;59.912;30.300;2024-01-27T05:39:50;101743.63;;;-0.99;74.49
35918;BME280;22011;59.912;30.300;2024-01-27T05:42:17;101750.69;;;-1.01;74.62
35918;BME280;22011;59.912;30.300;2024-01-27T05:44:45;101750.44;;;-0.95;74.65
35918;BME280;22011;59.912;30.300;2024-01-27T05:47:13;101746.19;;;-0.98;74.21
35918;BME280;22011;59.912;30.300;2024-01-27T05:49:41;101753.19;;;-0.98;74.44
35918;BME280;22011;59.912;30.300;2024-01-27T05:52:10;101755.53;;;-0.92;74.59
35918;BME280;22011;59.912;30.300;2024-01-27T05:54:39;101757.22;;;-0.91;74.76
35918;BME280;22011;59.912;30.300;2024-01-27T05:57:07;101763.44;;;-0.93;74.51
35918;BME280;22011;59.912;30.300;2024-01-27T05:59:35;101762.53;;;-0.92;74.60
35918;BME280;22011;59.912;30.300;2024-01-27T06:02:03;101760.81;;;-0.93;74.42
35918;BME280;22011;59.912;30.300;2024-01-27T06:04:31;101765.13;;;-0.92;74.57
35918;BME280;22011;59.912;30.300;2024-01-27T06:07:00;101764.16;;;-0.90;74.80
35918;BME280;22011;59.912;30.300;2024-01-27T06:09:29;101762.25;;;-0.86;74.56
35918;BME280;22011;59.912;30.300;2024-01-27T06:11:59;101763.03;;;-0.84;74.54
35918;BME280;22011;59.912;30.300;2024-01-27T06:14:26;101770.81;;;-0.83;74.44
35918;BME280;22011;59.912;30.300;2024-01-27T06:16:54;101775.06;;;-0.80;74.22
35918;BME280;22011;59.912;30.300;2024-01-27T06:19:21;101776.78;;;-0.79;74.32
35918;BME280;22011;59.912;30.300;2024-01-27T06:21:49;101772.38;;;-0.79;74.22
35918;BME280;22011;59.912;30.300;2024-01-27T06:24:17;101769.69;;;-0.77;74.12
35918;BME280;22011;59.912;30.300;2024-01-27T06:26:46;101776.63;;;-0.76;74.60
35918;BME280;22011;59.912;30.300;2024-01-27T06:29:13;101783.78;;;-0.80;74.49
35918;BME280;22011;59.912;30.300;2024-01-27T06:31:41;101783.56;;;-0.75;74.63
35918;BME280;22011;59.912;30.300;2024-01-27T06:34:08;101788.81;;;-0.75;74.23
35918;BME280;22011;59.912;30.300;2024-01-27T06:36:36;101782.66;;;-0.74;74.25
35918;BME280;22011;59.912;30.300;2024-01-27T06:39:04;101780.81;;;-0.72;74.05
35918;BME280;22011;59.912;30.300;2024-01-27T06:41:31;101786.03;;;-0.72;74.01
35918;BME280;22011;59.912;30.300;2024-01-27T06:44:00;101784.22;;;-0.70;74.17
35918;BME280;22011;59.912;30.300;2024-01-27T06:46:29;101794.81;;;-0.73;74.39
35918;BME280;22011;59.912;30.300;2024-01-27T06:48:56;101791.22;;;-0.71;74.69
35918;BME280;22011;59.912;30.300;2024-01-27T06:51:24;101789.38;;;-0.69;74.24
35918;BME280;22011;59.912;30.300;2024-01-27T06:53:52;101791.78;;;-0.64;74.34
35918;BME280;22011;59.912;30.300;2024-01-27T06:56:19;101800.44;;;-0.62;74.24
35918;BME280;22011;59.912;30.300;2024-01-27T06:58:47;101801.34;;;-0.63;73.91
35918;BME280;22011;59.912;30.300;2024-01-27T07:01:16;101804.59;;;-0.58;74.27
35918;BME280;22011;59.912;30.300;2024-01-27T07:03:44;101804.69;;;-0.59;73.95
35918;BME280;22011;59.912;30.300;2024-01-27T07:06:11;101803.91;;;-0.61;74.01
35918;BME280;22011;59.912;30.300;2024-01-27T07:08:39;101801.22;;;-0.60;73.95
35918;BME280;22011;59.912;30.300;2024-01-27T07:11:07;101809.06;;;-0.60;73.60
35918;BME280;22011;59.912;30.300;2024-01-27T07:13:34;101810.75;;;-0.59;73.23
35918;BME280;22011;59.912;30.300;2024-01-27T07:16:02;101820.25;;;-0.56;73.40
35918;BME280;22011;59.912;30.300;2024-01-27T07:18:31;101813.09;;;-0.53;73.63
35918;BME280;22011;59.912;30.300;2024-01-27T07:21:01;101832.47;;;-0.57;73.27
35918;BME280;22011;59.912;30.300;2024-01-27T07:23:28;101826.47;;;-0.59;73.02
35918;BME280;22011;59.912;30.300;2024-01-27T07:25:56;101839.41;;;-0.56;73.03
35918;BME280;22011;59.912;30.300;2024-01-27T07:28:29;101845.31;;;-0.51;73.33
35918;BME280;22011;59.912;30.300;2024-01-27T07:30:57;101841.63;;;-0.47;73.24
35918;BME280;22011;59.912;30.300;2024-01-27T07:33:24;101846.88;;;-0.47;72.62
35918;BME280;22011;59.912;30.300;2024-01-27T07:35:54;101853.81;;;-0.46;72.87
35918;BME280;22011;59.912;30.300;2024-01-27T07:38:21;101860.88;;;-0.48;72.69
35918;BME280;22011;59.912;30.300;2024-01-27T07:40:49;101861.53;;;-0.43;72.82
35918;BME280;22011;59.912;30.300;2024-01-27T07:43:17;101865.63;;;-0.37;72.99
35918;BME280;22011;59.912;30.300;2024-01-27T07:45:44;101872.50;;;-0.35;72.76
35918;BME280;22011;59.912;30.300;2024-01-27T07:48:12;101867.91;;;-0.29;72.84
35918;BME280;22011;59.912;30.300;2024-01-27T07:50:40;101864.31;;;-0.27;72.71
35918;BME280;22011;59.912;30.300;2024-01-27T07:53:13;101872.09;;;-0.25;72.69
35918;BME280;22011;59.912;30.300;2024-01-27T07:55:41;101881.00;;;-0.29;72.62
35918;BME280;22011;59.912;30.300;2024-01-27T07:58:08;101880.88;;;-0.26;72.71
35918;BME280;22011;59.912;30.300;2024-01-27T08:00:36;101883.63;;;-0.29;72.45
35918;BME280;22011;59.912;30.300;2024-01-27T08:03:04;101884.47;;;-0.29;73.15
35918;BME280;22011;59.912;30.300;2024-01-27T08:05:32;101893.81;;;-0.23;72.91
35918;BME280;22011;59.912;30.300;2024-01-27T08:07:59;101899.72;;;-0.18;72.34
35918;BME280;22011;59.912;30.300;2024-01-27T08:10:28;101909.78;;;-0.09;72.31
35918;BME280;22011;59.912;30.300;2024-01-27T08:12:56;101912.31;;;-0.08;71.77
35918;BME280;22011;59.912;30.300;2024-01-27T08:15:23;101918.03;;;0.00;71.92
35918;BME280;22011;59.912;30.300;2024-01-27T08:17:51;101922.16;;;0.06;71.61
35918;BME280;22011;59.912;30.300;2024-01-27T08:20:18;101916.00;;;0.07;71.60
35918;BME280;22011;59.912;30.300;2024-01-27T08:22:46;101919.53;;;0.06;71.13
35918;BME280;22011;59.912;30.300;2024-01-27T08:25:16;101929.75;;;0.12;71.32
35918;BME280;22011;59.912;30.300;2024-01-27T08:27:45;101922.59;;;0.16;71.18
35918;BME280;22011;59.912;30.300;2024-01-27T08:30:13;101920.97;;;0.13;70.86
35918;BME280;22011;59.912;30.300;2024-01-27T08:32:41;101928.88;;;0.12;70.53
35918;BME280;22011;59.912;30.300;2024-01-27T08:35:09;101931.84;;;0.04;71.11
35918;BME280;22011;59.912;30.300;2024-01-27T08:37:36;101925.91;;;0.00;71.08
35918;BME280;22011;59.912;30.300;2024-01-27T08:40:06;101925.91;;;0.00;71.65
35918;BME280;22011;59.912;30.300;2024-01-27T08:42:34;101928.44;;;0.02;71.95
35918;BME280;22011;59.912;30.300;2024-01-27T08:45:04;101934.34;;;0.07;71.70
35918;BME280;22011;59.912;30.300;2024-01-27T08:47:32;101929.03;;;0.09;71.75
35918;BME280;22011;59.912;30.300;2024-01-27T08:49:59;101941.91;;;0.13;71.45
35918;BME280;22011;59.912;30.300;2024-01-27T08:52:27;101934.69;;;0.18;71.21
35918;BME280;22011;59.912;30.300;2024-01-27T08:54:54;101936.41;;;0.19;71.02
35918;BME280;22011;59.912;30.300;2024-01-27T08:57:22;101946.69;;;0.24;71.05
35918;BME280;22011;59.912;30.300;2024-01-27T08:59:50;101948.44;;;0.23;70.73
35918;BME280;22011;59.912;30.300;2024-01-27T09:02:19;101946.53;;;0.27;71.11
35918;BME280;22011;59.912;30.300;2024-01-27T09:04:46;101945.63;;;0.28;71.18
35918;BME280;22011;59.912;30.300;2024-01-27T09:07:14;101947.19;;;0.32;71.15
35918;BME280;22011;59.912;30.300;2024-01-27T09:09:41;101947.75;;;0.39;70.88
35918;BME280;22011;59.912;30.300;2024-01-27T09:12:09;101958.88;;;0.44;70.58
35918;BME280;22011;59.912;30.300;2024-01-27T09:14:37;101954.25;;;0.49;70.19
35918;BME280;22011;59.912;30.300;2024-01-27T09:17:04;101955.81;;;0.53;70.30
35918;BME280;22011;59.912;30.300;2024-01-27T09:19:33;101956.59;;;0.55;69.93
35918;BME280;22011;59.912;30.300;2024-01-27T09:22:01;101962.75;;;0.54;70.16
35918;BME280;22011;59.912;30.300;2024-01-27T09:24:28;101963.47;;;0.57;70.28
35918;BME280;22011;59.912;30.300;2024-01-27T09:26:56;101967.72;;;0.60;69.93
35918;BME280;22011;59.912;30.300;2024-01-27T09:29:23;101964.03;;;0.64;69.37
35918;BME280;22011;59.912;30.300;2024-01-27T09:31:51;101957.72;;;0.68;68.87
35918;BME280;22011;59.912;30.300;2024-01-27T09:34:18;101961.91;;;0.72;68.45
35918;BME280;22011;59.912;30.300;2024-01-27T09:36:47;101973.88;;;0.78;69.11
35918;BME280;22011;59.912;30.300;2024-01-27T09:39:15;101967.78;;;0.77;69.42
35918;BME280;22011;59.912;30.300;2024-01-27T09:41:43;101966.16;;;0.75;69.25
35918;BME280;22011;59.912;30.300;2024-01-27T09:44:12;101962.81;;;0.71;69.30
35918;BME280;22011;59.912;30.300;2024-01-27T09:46:41;101961.41;;;0.64;69.49
35918;BME280;22011;59.912;30.300;2024-01-27T09:49:09;101969.28;;;0.64;69.15
35918;BME280;22011;59.912;30.300;2024-01-27T09:51:41;101962.47;;;0.60;69.68
35918;BME280;22011;59.912;30.300;2024-01-27T09:54:10;101959.56;;;0.66;69.53
35918;BME280;22011;59.912;30.300;2024-01-27T09:56:37;101958.50;;;0.70;68.79
35918;BME280;22011;59.912;30.300;2024-01-27T09:59:05;101959.63;;;0.83;68.66
35918;BME280;22011;59.912;30.300;2024-01-27T10:01:35;101964.72;;;0.86;68.22
35918;BME280;22011;59.912;30.300;2024-01-27T10:04:04;101968.28;;;0.85;67.76
35918;BME280;22011;59.912;30.300;2024-01-27T10:06:34;101966.28;;;0.90;68.09
35918;BME280;22011;59.912;30.300;2024-01-27T10:09:02;101967.97;;;0.91;67.98
35918;BME280;22011;59.912;30.300;2024-01-27T10:11:32;101967.13;;;0.91;67.75
35918;BME280;22011;59.912;30.300;2024-01-27T10:14:03;101974.44;;;0.84;67.50
35918;BME280;22011;59.912;30.300;2024-01-27T10:16:40;101965.69;;;1.03;68.53
35918;BME280;22011;59.912;30.300;2024-01-27T10:19:12;101965.13;;;0.96;68.24
35918;BME280;22011;59.912;30.300;2024-01-27T10:21:42;101960.19;;;0.90;67.43
35918;BME280;22011;59.912;30.300;2024-01-27T10:24:09;101962.72;;;0.91;67.78
35918;BME280;22011;59.912;30.300;2024-01-27T10:26:38;101964.28;;;0.95;67.29
35918;BME280;22011;59.912;30.300;2024-01-27T10:29:06;101965.97;;;0.96;67.28
35918;BME280;22011;59.912;30.300;2024-01-27T10:31:35;101966.69;;;1.00;66.93
35918;BME280;22011;59.912;30.300;2024-01-27T10:34:03;101969.16;;;1.03;66.38
35918;BME280;22011;59.912;30.300;2024-01-27T10:36:38;101968.69;;;1.12;67.70
35918;BME280;22011;59.912;30.300;2024-01-27T10:39:24;101978.44;;;1.27;67.57
35918;BME280;22011;59.912;30.300;2024-01-27T10:41:53;101975.69;;;1.12;66.87
35918;BME280;22011;59.912;30.300;2024-01-27T10:44:21;101978.41;;;1.10;67.40
35918;BME280;22011;59.912;30.300;2024-01-27T10:46:49;101977.56;;;1.10;67.49
35918;BME280;22011;59.912;30.300;2024-01-27T10:49:18;101972.44;;;1.07;66.84
35918;BME280;22011;59.912;30.300;2024-01-27T10:51:48;101972.31;;;1.10;66.95
35918;BME280;22011;59.912;30.300;2024-01-27T10:54:23;101976.94;;;1.22;67.30
35918;BME280;22011;59.912;30.300;2024-01-27T10:56:54;101975.41;;;1.18;67.13
35918;BME280;22011;59.912;30.300;2024-01-27T10:59:26;101982.78;;;1.10;66.93
35918;BME280;22011;59.912;30.300;2024-01-27T11:01:54;101979.56;;;1.05;67.35
35918;BME280;22011;59.912;30.300;2024-01-27T11:04:22;101974.47;;;1.02;67.10
35918;BME280;22011;59.912;30.300;2024-01-27T11:06:50;101981.50;;;1.01;67.99
35918;BME280;22011;59.912;30.300;2024-01-27T11:09:18;101987.41;;;1.05;67.75
35918;BME280;22011;59.912;30.300;2024-01-27T11:11:47;101982.16;;;1.05;68.02
35918;BME280;22011;59.912;30.300;2024-01-27T11:14:16;101980.31;;;1.07;67.94
35918;BME280;22011;59.912;30.300;2024-01-27T11:16:44;101990.22;;;1.02;67.56
35918;BME280;22011;59.912;30.300;2024-01-27T11:19:16;101992.06;;;1.00;67.84
35918;BME280;22011;59.912;30.300;2024-01-27T11:21:44;101991.81;;;1.04;68.18
35918;BME280;22011;59.912;30.300;2024-01-27T11:24:15;101995.00;;;1.11;67.95
35918;BME280;22011;59.912;30.300;2024-01-27T11:26:44;102004.13;;;1.04;67.74
35918;BME280;22011;59.912;30.300;2024-01-27T11:29:11;102005.13;;;1.01;67.31
35918;BME280;22011;59.912;30.300;2024-01-27T11:31:48;102010.28;;;1.03;67.13
35918;BME280;22011;59.912;30.300;2024-01-27T11:34:17;102003.28;;;1.03;67.10
35918;BME280;22011;59.912;30.300;2024-01-27T11:36:46;102009.38;;;1.04;67.39
35918;BME280;22011;59.912;30.300;2024-01-27T11:39:24;102017.41;;;1.18;68.22
35918;BME280;22011;59.912;30.300;2024-01-27T11:41:52;102025.13;;;1.04;67.51
35918;BME280;22011;59.912;30.300;2024-01-27T11:44:20;102021.47;;;1.06;67.91
35918;BME280;22011;59.912;30.300;2024-01-27T11:46:49;102019.41;;;1.13;67.10
35918;BME280;22011;59.912;30.300;2024-01-27T11:49:17;102021.09;;;1.14;66.79
35918;BME280;22011;59.912;30.300;2024-01-27T11:51:44;102026.97;;;1.19;67.34
35918;BME280;22011;59.912;30.300;2024-01-27T11:54:12;102040.09;;;1.19;67.84
35918;BME280;22011;59.912;30.300;2024-01-27T11:56:39;102041.88;;;1.18;67.50
35918;BME280;22011;59.912;30.300;2024-01-27T11:59:07;102041.94;;;1.17;67.74
35918;BME280;22011;59.912;30.300;2024-01-27T12:01:34;102050.75;;;1.16;67.81
35918;BME280;22011;59.912;30.300;2024-01-27T12:04:04;102050.75;;;1.16;67.42
35918;BME280;22011;59.912;30.300;2024-01-27T12:06:32;102050.75;;;1.16;67.15
35918;BME280;22011;59.912;30.300;2024-01-27T12:08:59;102053.44;;;1.14;67.34
35918;BME280;22011;59.912;30.300;2024-01-27T12:11:27;102057.16;;;1.10;66.39
35918;BME280;22011;59.912;30.300;2024-01-27T12:13:56;102059.69;;;1.12;66.54
35918;BME280;22011;59.912;30.300;2024-01-27T12:16:24;102061.41;;;1.13;66.68
35918;BME280;22011;59.912;30.300;2024-01-27T12:18:52;102065.72;;;1.14;66.09
35918;BME280;22011;59.912;30.300;2024-01-27T12:21:22;102065.88;;;1.11;67.20
35918;BME280;22011;59.912;30.300;2024-01-27T12:23:51;102067.00;;;1.05;67.72
35918;BME280;22011;59.912;30.300;2024-01-27T12:26:20;102069.75;;;1.04;68.48
35918;BME280;22011;59.912;30.300;2024-01-27T12:28:48;102066.56;;;0.97;67.77
35918;BME280;22011;59.912;30.300;2024-01-27T12:31:16;102074.56;;;0.94;67.41
35918;BME280;22011;59.912;30.300;2024-01-27T12:33:48;102079.59;;;0.98;67.81
35918;BME280;22011;59.912;30.300;2024-01-27T12:36:17;102081.88;;;0.87;67.47
35918;BME280;22011;59.912;30.300;2024-01-27T12:38:53;102087.47;;;0.98;68.13
35918;BME280;22011;59.912;30.300;2024-01-27T12:41:21;102083.63;;;0.87;68.03
35918;BME280;22011;59.912;30.300;2024-01-27T12:43:48;102085.41;;;0.86;68.03
35918;BME280;22011;59.912;30.300;2024-01-27T12:46:16;102092.38;;;0.87;68.13
35918;BME280;22011;59.912;30.300;2024-01-27T12:48:44;102090.72;;;0.85;67.64